createdAt,value
2018-03-19T00:01:33.734Z,-4.39
2018-03-19T00:04:01.479Z,-4.41
2018-03-19T00:06:29.169Z,-4.45
2018-03-19T00:08:56.904Z,-4.47
2018-03-19T00:11:24.592Z,-4.47
2018-03-19T00:13:52.296Z,-4.48
2018-03-19T00:16:19.977Z,-4.49
2018-03-19T00:18:47.680Z,-4.49
2018-03-19T00:21:15.356Z,-4.49
2018-03-19T00:23:43.099Z,-4.48
2018-03-19T00:26:10.784Z,-4.48
2018-03-19T00:28:38.496Z,-4.47
2018-03-19T00:31:06.184Z,-4.45
2018-03-19T00:33:33.908Z,-4.42
2018-03-19T00:36:01.607Z,-4.39
2018-03-19T00:38:29.308Z,-4.35
2018-03-19T00:40:57.021Z,-4.31
2018-03-19T00:43:24.800Z,-4.27
2018-03-19T00:45:52.510Z,-4.22
2018-03-19T00:48:20.228Z,-4.20
2018-03-19T00:50:51.852Z,-4.18
2018-03-19T00:53:19.544Z,-4.17
2018-03-19T00:55:47.246Z,-4.18
2018-03-19T00:58:14.934Z,-4.17
2018-03-19T01:00:42.744Z,-4.18
2018-03-19T01:03:10.439Z,-4.18
2018-03-19T01:05:38.172Z,-4.17
2018-03-19T01:08:05.864Z,-4.17
2018-03-19T01:10:33.597Z,-4.17
2018-03-19T01:13:01.280Z,-4.17
2018-03-19T01:15:29.028Z,-4.18
2018-03-19T01:17:56.712Z,-4.19
2018-03-19T01:20:24.457Z,-4.21
2018-03-19T01:22:52.153Z,-4.21
2018-03-19T01:25:19.884Z,-4.22
2018-03-19T01:27:47.572Z,-4.24
2018-03-19T01:30:15.312Z,-4.26
2018-03-19T01:32:43.077Z,-4.28
2018-03-19T01:35:10.776Z,-4.29
2018-03-19T01:37:38.521Z,-4.30
2018-03-19T01:40:06.236Z,-4.30
2018-03-19T01:42:33.917Z,-4.31
2018-03-19T01:45:01.629Z,-4.31
2018-03-19T01:47:29.317Z,-4.30
2018-03-19T01:49:57.128Z,-4.31
2018-03-19T01:52:36.444Z,-4.31
2018-03-19T01:55:04.164Z,-4.32
2018-03-19T01:57:31.844Z,-4.32
2018-03-19T01:59:59.529Z,-4.32
2018-03-19T02:02:27.237Z,-4.31
2018-03-19T02:04:54.924Z,-4.33
2018-03-19T02:07:22.644Z,-4.34
2018-03-19T02:09:50.333Z,-4.36
2018-03-19T02:12:18.079Z,-4.37
2018-03-19T02:14:45.858Z,-4.37
2018-03-19T02:17:13.564Z,-4.38
2018-03-19T02:19:41.248Z,-4.39
2018-03-19T02:22:08.951Z,-4.40
2018-03-19T02:24:36.702Z,-4.41
2018-03-19T02:27:04.469Z,-4.42
2018-03-19T02:29:32.231Z,-4.45
2018-03-19T02:31:59.939Z,-4.46
2018-03-19T02:34:27.636Z,-4.48
2018-03-19T02:36:55.336Z,-4.50
2018-03-19T02:39:23.033Z,-4.53
2018-03-19T02:41:50.857Z,-4.56
2018-03-19T02:44:18.617Z,-4.57
2018-03-19T02:46:46.320Z,-4.58
2018-03-19T02:49:14.009Z,-4.59
2018-03-19T02:51:41.813Z,-4.61
2018-03-19T02:54:09.492Z,-4.63
2018-03-19T02:56:37.237Z,-4.65
2018-03-19T02:59:05.010Z,-4.68
2018-03-19T03:01:32.716Z,-4.71
2018-03-19T03:04:00.396Z,-4.74
2018-03-19T03:06:28.117Z,-4.77
2018-03-19T03:08:55.799Z,-4.81
2018-03-19T03:11:23.491Z,-4.84
2018-03-19T03:13:51.190Z,-4.86
2018-03-19T03:16:18.948Z,-4.90
2018-03-19T03:18:46.665Z,-4.93
2018-03-19T03:21:14.353Z,-4.95
2018-03-19T03:23:42.062Z,-4.98
2018-03-19T03:26:09.804Z,-5.01
2018-03-19T03:28:37.577Z,-5.05
2018-03-19T03:31:05.335Z,-5.07
2018-03-19T03:33:33.041Z,-5.10
2018-03-19T03:36:00.742Z,-5.11
2018-03-19T03:38:28.443Z,-5.15
2018-03-19T03:40:56.134Z,-5.17
2018-03-19T03:43:23.856Z,-5.20
2018-03-19T03:45:51.616Z,-5.23
2018-03-19T03:48:19.383Z,-5.25
2018-03-19T03:50:47.161Z,-5.27
2018-03-19T03:53:14.869Z,-5.29
2018-03-19T03:55:42.547Z,-5.30
2018-03-19T03:58:10.340Z,-5.32
2018-03-19T04:00:38.116Z,-5.33
2018-03-19T04:03:05.875Z,-5.37
2018-03-19T04:05:33.565Z,-5.39
2018-03-19T04:08:01.312Z,-5.41
2018-03-19T04:10:29.475Z,-5.44
2018-03-19T04:12:57.183Z,-5.47
2018-03-19T04:15:24.873Z,-5.50
2018-03-19T04:17:52.571Z,-5.53
2018-03-19T04:20:20.356Z,-5.58
2018-03-19T04:22:48.031Z,-5.60
2018-03-19T04:25:15.773Z,-5.65
2018-03-19T04:27:43.474Z,-5.68
2018-03-19T04:30:11.187Z,-5.72
2018-03-19T04:32:38.955Z,-5.77
2018-03-19T04:35:06.729Z,-5.82
2018-03-19T04:37:34.404Z,-5.88
2018-03-19T04:40:02.113Z,-5.92
2018-03-19T04:42:29.825Z,-5.98
2018-03-19T04:44:57.536Z,-6.03
2018-03-19T04:47:25.241Z,-6.09
2018-03-19T04:49:53.014Z,-6.14
2018-03-19T04:52:20.696Z,-6.19
2018-03-19T04:54:48.450Z,-6.22
2018-03-19T04:57:16.137Z,-6.27
2018-03-19T04:59:43.858Z,-6.30
2018-03-19T05:02:11.545Z,-6.32
2018-03-19T05:04:39.253Z,-6.33
2018-03-19T05:07:06.961Z,-6.35
2018-03-19T05:09:34.673Z,-6.36
2018-03-19T05:12:02.384Z,-6.38
2018-03-19T05:14:30.109Z,-6.38
2018-03-19T05:16:57.817Z,-6.36
2018-03-19T05:19:25.572Z,-6.35
2018-03-19T05:21:53.241Z,-6.33
2018-03-19T05:24:21.003Z,-6.32
2018-03-19T05:26:48.777Z,-6.30
2018-03-19T05:29:16.476Z,-6.28
2018-03-19T05:31:44.164Z,-6.26
2018-03-19T05:34:11.876Z,-6.26
2018-03-19T05:36:39.588Z,-6.23
2018-03-19T05:39:07.302Z,-6.22
2018-03-19T05:41:35.061Z,-6.20
2018-03-19T05:44:02.757Z,-6.17
2018-03-19T05:46:30.494Z,-6.12
2018-03-19T05:48:58.188Z,-6.07
2018-03-19T05:51:25.905Z,-6.01
2018-03-19T05:53:53.584Z,-5.95
2018-03-19T05:56:21.339Z,-5.90
2018-03-19T05:58:49.042Z,-5.80
2018-03-19T06:01:16.767Z,-5.70
2018-03-19T06:03:44.538Z,-5.60
2018-03-19T06:06:12.304Z,-5.50
2018-03-19T06:08:39.988Z,-5.41
2018-03-19T06:11:07.696Z,-5.34
2018-03-19T06:13:35.395Z,-5.26
2018-03-19T06:16:03.099Z,-5.18
2018-03-19T06:18:30.815Z,-5.11
2018-03-19T06:20:58.552Z,-5.06
2018-03-19T06:23:26.243Z,-5.01
2018-03-19T06:25:54.021Z,-4.97
2018-03-19T06:28:21.747Z,-4.92
2018-03-19T06:30:49.541Z,-4.85
2018-03-19T06:33:17.263Z,-4.75
2018-03-19T06:35:44.977Z,-4.66
2018-03-19T06:38:12.666Z,-4.56
2018-03-19T06:40:40.377Z,-4.45
2018-03-19T06:43:08.168Z,-4.35
2018-03-19T06:45:35.937Z,-4.24
2018-03-19T06:48:03.695Z,-4.15
2018-03-19T06:50:31.404Z,-4.05
2018-03-19T06:52:59.128Z,-3.97
2018-03-19T06:55:26.865Z,-3.89
2018-03-19T06:57:54.565Z,-3.80
2018-03-19T07:00:22.257Z,-3.72
2018-03-19T07:02:49.980Z,-3.63
2018-03-19T07:05:17.845Z,-3.55
2018-03-19T07:07:45.611Z,-3.45
2018-03-19T07:10:13.379Z,-3.36
2018-03-19T07:12:41.157Z,-3.29
2018-03-19T07:15:08.911Z,-3.20
2018-03-19T07:17:36.681Z,-3.12
2018-03-19T07:20:04.449Z,-3.05
2018-03-19T07:22:32.240Z,-2.95
2018-03-19T07:24:59.918Z,-2.86
2018-03-19T07:27:27.749Z,-2.77
2018-03-19T07:29:55.500Z,-2.69
2018-03-19T07:32:23.267Z,-2.59
2018-03-19T07:34:50.944Z,-2.48
2018-03-19T07:37:18.645Z,-2.37
2018-03-19T07:39:46.328Z,-2.25
2018-03-19T07:42:14.030Z,-2.12
2018-03-19T07:44:41.886Z,-2.01
2018-03-19T07:47:09.587Z,-1.90
2018-03-19T07:49:37.279Z,-1.78
2018-03-19T07:52:04.984Z,-1.67
2018-03-19T07:54:32.688Z,-1.56
2018-03-19T07:57:00.408Z,-1.45
2018-03-19T07:59:28.097Z,-1.35
2018-03-19T08:01:55.803Z,-1.26
2018-03-19T08:04:23.495Z,-1.17
2018-03-19T08:06:51.199Z,-1.07
2018-03-19T08:09:18.925Z,-0.98
2018-03-19T08:11:46.632Z,-0.90
2018-03-19T08:14:14.352Z,-0.82
2018-03-19T08:16:42.133Z,-0.73
2018-03-19T08:19:09.835Z,-0.65
2018-03-19T08:21:37.525Z,-0.56
2018-03-19T08:24:05.241Z,-0.48
2018-03-19T08:26:32.919Z,-0.42
2018-03-19T08:29:00.634Z,-0.36
2018-03-19T08:31:28.319Z,-0.31
2018-03-19T08:33:56.066Z,-0.25
2018-03-19T08:36:23.762Z,-0.21
2018-03-19T08:38:51.511Z,-0.13
2018-03-19T08:41:19.316Z,-0.07
2018-03-19T08:43:47.012Z,0.01
2018-03-19T08:46:14.702Z,0.08
2018-03-19T08:48:42.461Z,0.16
2018-03-19T08:51:10.219Z,0.24
2018-03-19T08:53:37.940Z,0.32
2018-03-19T08:56:05.635Z,0.38
2018-03-19T08:58:33.336Z,0.44
2018-03-19T09:01:01.086Z,0.50
2018-03-19T09:03:28.798Z,0.56
2018-03-19T09:05:56.513Z,0.61
2018-03-19T09:08:24.277Z,0.68
2018-03-19T09:10:51.954Z,0.75
2018-03-19T09:13:19.696Z,0.80
2018-03-19T09:15:47.442Z,0.87
2018-03-19T09:18:15.144Z,0.93
2018-03-19T09:20:42.892Z,0.99
2018-03-19T09:23:10.657Z,1.06
2018-03-19T09:25:38.268Z,1.12
2018-03-19T09:28:05.872Z,1.18
2018-03-19T09:30:33.584Z,1.23
2018-03-19T09:33:01.270Z,1.29
2018-03-19T09:35:28.895Z,1.33
2018-03-19T09:37:56.487Z,1.35
2018-03-19T09:40:24.108Z,1.40
2018-03-19T09:42:51.753Z,1.46
2018-03-19T09:45:19.434Z,1.49
2018-03-19T09:47:47.032Z,1.54
2018-03-19T09:50:14.861Z,1.58
2018-03-19T09:52:42.521Z,1.64
2018-03-19T09:55:10.149Z,1.70
2018-03-19T09:57:37.948Z,1.74
2018-03-19T10:00:05.568Z,1.79
2018-03-19T10:02:33.174Z,1.79
2018-03-19T10:05:00.799Z,1.81
2018-03-19T10:07:28.405Z,1.85
2018-03-19T10:09:56.103Z,1.89
2018-03-19T10:12:23.714Z,1.93
2018-03-19T10:14:51.385Z,1.98
2018-03-19T10:17:19.038Z,2.03
2018-03-19T10:19:46.667Z,2.08
2018-03-19T10:22:14.382Z,2.16
2018-03-19T10:24:42.027Z,2.22
2018-03-19T10:27:09.668Z,2.26
2018-03-19T10:29:37.456Z,2.31
2018-03-19T10:32:05.095Z,2.35
2018-03-19T10:34:32.793Z,2.40
2018-03-19T10:37:00.452Z,2.44
2018-03-19T10:39:28.108Z,2.47
2018-03-19T10:41:55.741Z,2.51
2018-03-19T10:44:23.349Z,2.54
2018-03-19T10:46:50.994Z,2.58
2018-03-19T10:49:18.672Z,2.62
2018-03-19T10:51:46.301Z,2.69
2018-03-19T10:54:13.904Z,2.73
2018-03-19T10:56:41.544Z,2.79
2018-03-19T10:59:09.138Z,2.85
2018-03-19T11:01:42.417Z,2.90
2018-03-19T11:04:14.394Z,2.93
2018-03-19T11:06:47.669Z,2.94
2018-03-19T11:09:21.017Z,2.97
2018-03-19T11:11:48.733Z,3.02
2018-03-19T11:14:16.393Z,3.05
2018-03-19T11:16:44.011Z,3.06
2018-03-19T11:19:11.607Z,3.11
2018-03-19T11:21:39.235Z,3.14
2018-03-19T11:24:06.829Z,3.20
2018-03-19T11:26:34.464Z,3.23
2018-03-19T11:29:02.073Z,3.27
2018-03-19T11:31:29.672Z,3.29
2018-03-19T11:33:57.381Z,3.29
2018-03-19T11:36:24.975Z,3.30
2018-03-19T11:38:52.717Z,3.34
2018-03-19T11:41:20.315Z,3.40
2018-03-19T11:43:48.032Z,3.44
2018-03-19T11:46:15.798Z,3.48
2018-03-19T11:48:43.481Z,3.51
2018-03-19T11:51:11.133Z,3.54
2018-03-19T11:53:38.793Z,3.59
2018-03-19T11:56:06.461Z,3.61
2018-03-19T11:58:34.116Z,3.66
2018-03-19T12:01:01.727Z,3.68
2018-03-19T12:03:29.358Z,3.70
2018-03-19T12:05:56.972Z,3.70
2018-03-19T12:08:24.605Z,3.72
2018-03-19T12:10:52.327Z,3.75
2018-03-19T12:13:19.960Z,3.76
2018-03-19T12:15:47.661Z,3.78
2018-03-19T12:18:15.293Z,3.82
2018-03-19T12:20:42.911Z,3.83
2018-03-19T12:23:10.538Z,3.85
2018-03-19T12:25:38.154Z,3.86
2018-03-19T12:28:05.874Z,3.89
2018-03-19T12:30:33.531Z,3.91
2018-03-19T12:33:01.161Z,3.94
2018-03-19T12:35:28.772Z,3.97
2018-03-19T12:37:56.416Z,3.98
2018-03-19T12:40:24.022Z,4.01
2018-03-19T12:42:51.623Z,4.01
2018-03-19T12:45:19.252Z,4.04
2018-03-19T12:47:46.861Z,4.08
2018-03-19T12:50:14.527Z,4.13
2018-03-19T12:52:42.124Z,4.16
2018-03-19T12:55:09.852Z,4.18
2018-03-19T12:57:37.515Z,4.22
2018-03-19T13:00:05.279Z,4.24
2018-03-19T13:02:32.883Z,4.27
2018-03-19T13:05:00.591Z,4.29
2018-03-19T13:07:28.268Z,4.31
2018-03-19T13:09:55.895Z,4.32
2018-03-19T13:12:23.493Z,4.32
2018-03-19T13:14:51.129Z,4.34
2018-03-19T13:17:18.820Z,4.38
2018-03-19T13:19:46.483Z,4.41
2018-03-19T13:22:14.097Z,4.42
2018-03-19T13:24:41.724Z,4.43
2018-03-19T13:27:09.367Z,4.44
2018-03-19T13:29:37.035Z,4.45
2018-03-19T13:32:04.695Z,4.47
2018-03-19T13:34:32.320Z,4.50
2018-03-19T13:36:59.920Z,4.51
2018-03-19T13:39:27.583Z,4.51
2018-03-19T13:41:55.188Z,4.52
2018-03-19T13:44:22.915Z,4.55
2018-03-19T13:46:50.520Z,4.55
2018-03-19T13:49:18.149Z,4.57
2018-03-19T13:51:45.795Z,4.56
2018-03-19T13:54:13.415Z,4.55
2018-03-19T13:56:41.032Z,4.52
2018-03-19T13:59:08.644Z,4.50
2018-03-19T14:01:36.271Z,4.50
2018-03-19T14:04:03.874Z,4.50
2018-03-19T14:06:31.495Z,4.50
2018-03-19T14:08:59.137Z,4.49
2018-03-19T14:11:26.821Z,4.49
2018-03-19T14:13:54.884Z,4.51
2018-03-19T14:16:22.505Z,4.51
2018-03-19T14:18:50.197Z,4.52
2018-03-19T14:21:17.955Z,4.53
2018-03-19T14:23:45.556Z,4.51
2018-03-19T14:26:13.180Z,4.51
2018-03-19T14:28:40.784Z,4.51
2018-03-19T14:31:08.479Z,4.52
2018-03-19T14:33:36.167Z,4.51
2018-03-19T14:36:03.789Z,4.52
2018-03-19T14:38:31.487Z,4.52
2018-03-19T14:40:59.183Z,4.51
2018-03-19T14:43:26.779Z,4.50
2018-03-19T14:45:54.436Z,4.49
2018-03-19T14:48:22.153Z,4.48
2018-03-19T14:50:49.899Z,4.49
2018-03-19T14:53:17.475Z,4.47
2018-03-19T14:55:45.136Z,4.46
2018-03-19T14:58:12.745Z,4.43
2018-03-19T15:00:40.372Z,4.41
2018-03-19T15:03:07.967Z,4.40
2018-03-19T15:05:35.587Z,4.40
2018-03-19T15:08:03.244Z,4.39
2018-03-19T15:10:30.910Z,4.38
2018-03-19T15:12:58.545Z,4.36
2018-03-19T15:15:26.248Z,4.36
2018-03-19T15:17:53.896Z,4.36
2018-03-19T15:20:21.505Z,4.34
2018-03-19T15:22:49.138Z,4.34
2018-03-19T15:25:16.747Z,4.33
2018-03-19T15:27:44.372Z,4.32
2018-03-19T15:30:11.983Z,4.30
2018-03-19T15:32:39.669Z,4.28
2018-03-19T15:35:07.332Z,4.26
2018-03-19T15:37:35.009Z,4.26
2018-03-19T15:40:02.761Z,4.23
2018-03-19T15:42:30.392Z,4.22
2018-03-19T15:44:57.987Z,4.21
2018-03-19T15:47:25.609Z,4.20
2018-03-19T15:49:53.212Z,4.18
2018-03-19T15:52:20.850Z,4.16
2018-03-19T15:54:48.462Z,4.14
2018-03-19T15:57:16.106Z,4.12
2018-03-19T15:59:43.699Z,4.12
2018-03-19T16:02:11.324Z,4.11
2018-03-19T16:04:38.934Z,4.09
2018-03-19T16:07:06.561Z,4.06
2018-03-19T16:09:34.172Z,4.03
2018-03-19T16:12:01.796Z,4.01
2018-03-19T16:14:29.427Z,3.98
2018-03-19T16:16:57.101Z,3.95
2018-03-19T16:19:24.703Z,3.92
2018-03-19T16:21:52.419Z,3.88
2018-03-19T16:24:20.182Z,3.87
2018-03-19T16:26:47.780Z,3.88
2018-03-19T16:29:15.409Z,3.85
2018-03-19T16:31:43.072Z,3.82
2018-03-19T16:34:10.737Z,3.79
2018-03-19T16:36:38.335Z,3.76
2018-03-19T16:39:05.958Z,3.71
2018-03-19T16:41:33.560Z,3.69
2018-03-19T16:44:01.189Z,3.65
2018-03-19T16:46:28.802Z,3.60
2018-03-19T16:48:56.461Z,3.57
2018-03-19T16:51:24.069Z,3.53
2018-03-19T16:53:51.729Z,3.48
2018-03-19T16:56:19.341Z,3.43
2018-03-19T16:58:47.054Z,3.38
2018-03-19T17:01:14.718Z,3.33
2018-03-19T17:03:42.368Z,3.28
2018-03-19T17:06:09.980Z,3.24
2018-03-19T17:08:37.608Z,3.19
2018-03-19T17:11:05.208Z,3.14
2018-03-19T17:13:32.828Z,3.10
2018-03-19T17:16:00.501Z,3.05
2018-03-19T17:18:28.133Z,3.00
2018-03-19T17:20:55.740Z,2.96
2018-03-19T17:23:23.380Z,2.90
2018-03-19T17:25:51.045Z,2.87
2018-03-19T17:28:18.710Z,2.81
2018-03-19T17:30:46.395Z,2.80
2018-03-19T17:33:14.043Z,2.84
2018-03-19T17:35:41.644Z,2.91
2018-03-19T17:38:09.356Z,2.90
2018-03-19T17:40:37.019Z,2.85
2018-03-19T17:43:04.616Z,2.76
2018-03-19T17:45:32.344Z,2.66
2018-03-19T17:47:59.984Z,2.56
2018-03-19T17:50:27.597Z,2.47
2018-03-19T17:52:56.771Z,2.39
2018-03-19T17:55:24.396Z,2.27
2018-03-19T17:57:52.088Z,2.15
2018-03-19T18:00:19.797Z,2.04
2018-03-19T18:02:47.480Z,1.93
2018-03-19T18:05:15.296Z,1.82
2018-03-19T18:07:42.980Z,1.73
2018-03-19T18:10:10.693Z,1.63
2018-03-19T18:12:38.373Z,1.56
2018-03-19T18:15:06.096Z,1.48
2018-03-19T18:17:33.808Z,1.42
2018-03-19T18:20:01.516Z,1.35
2018-03-19T18:22:29.203Z,1.28
2018-03-19T18:24:57.203Z,1.23
2018-03-19T18:27:24.977Z,1.15
2018-03-19T18:29:52.690Z,1.04
2018-03-19T18:32:20.373Z,0.92
2018-03-19T18:34:48.173Z,0.82
2018-03-19T18:37:15.931Z,0.72
2018-03-19T18:39:43.644Z,0.62
2018-03-19T18:42:11.356Z,0.54
2018-03-19T18:44:39.049Z,0.45
2018-03-19T18:47:06.760Z,0.37
2018-03-19T18:49:34.446Z,0.30
2018-03-19T18:52:02.189Z,0.26
2018-03-19T18:54:29.870Z,0.22
2018-03-19T18:56:57.589Z,0.18
2018-03-19T18:59:25.274Z,0.16
2018-03-19T19:01:53.067Z,0.12
2018-03-19T19:04:20.752Z,0.07
2018-03-19T19:06:48.504Z,0.05
2018-03-19T19:09:16.273Z,0.02
2018-03-19T19:11:44.037Z,-0.01
2018-03-19T19:14:11.791Z,-0.05
2018-03-19T19:16:39.563Z,-0.09
2018-03-19T19:19:07.366Z,-0.13
2018-03-19T19:21:35.192Z,-0.16
2018-03-19T19:24:02.883Z,-0.20
2018-03-19T19:26:30.630Z,-0.24
2018-03-19T19:28:58.292Z,-0.25
2018-03-19T19:31:26.058Z,-0.26
2018-03-19T19:33:53.752Z,-0.28
2018-03-19T19:36:21.477Z,-0.30
2018-03-19T19:38:49.343Z,-0.34
2018-03-19T19:41:17.056Z,-0.38
2018-03-19T19:43:44.743Z,-0.41
2018-03-19T19:46:12.447Z,-0.45
2018-03-19T19:48:40.463Z,-0.47
2018-03-19T19:51:08.176Z,-0.50
2018-03-19T19:53:35.860Z,-0.52
2018-03-19T19:56:03.613Z,-0.55
2018-03-19T19:58:31.367Z,-0.59
2018-03-19T20:00:59.087Z,-0.64
2018-03-19T20:03:26.791Z,-0.69
2018-03-19T20:05:54.471Z,-0.73
2018-03-19T20:08:22.229Z,-0.78
2018-03-19T20:10:49.917Z,-0.80
2018-03-19T20:13:17.624Z,-0.82
2018-03-19T20:15:45.379Z,-0.86
2018-03-19T20:18:13.084Z,-0.90
2018-03-19T20:20:40.842Z,-0.94
2018-03-19T20:23:08.617Z,-0.98
2018-03-19T20:25:36.381Z,-0.99
2018-03-19T20:28:04.139Z,-1.01
2018-03-19T20:30:31.950Z,-1.02
2018-03-19T20:32:59.676Z,-1.05
2018-03-19T20:35:27.421Z,-1.09
2018-03-19T20:37:55.108Z,-1.12
2018-03-19T20:40:22.864Z,-1.17
2018-03-19T20:42:50.647Z,-1.21
2018-03-19T20:45:18.390Z,-1.25
2018-03-19T20:47:46.164Z,-1.29
2018-03-19T20:50:13.861Z,-1.34
2018-03-19T20:52:41.571Z,-1.37
2018-03-19T20:55:09.351Z,-1.40
2018-03-19T20:57:37.074Z,-1.42
2018-03-19T21:00:04.774Z,-1.44
2018-03-19T21:02:32.502Z,-1.47
2018-03-19T21:05:00.192Z,-1.50
2018-03-19T21:07:27.986Z,-1.52
2018-03-19T21:09:55.735Z,-1.54
2018-03-19T21:12:23.507Z,-1.57
2018-03-19T21:14:51.216Z,-1.60
2018-03-19T21:17:18.931Z,-1.63
2018-03-19T21:19:46.661Z,-1.67
2018-03-19T21:22:14.342Z,-1.70
2018-03-19T21:24:42.123Z,-1.74
2018-03-19T21:27:09.817Z,-1.76
2018-03-19T21:29:37.524Z,-1.79
2018-03-19T21:32:05.234Z,-1.80
2018-03-19T21:34:32.982Z,-1.82
2018-03-19T21:37:00.681Z,-1.84
2018-03-19T21:39:28.397Z,-1.87
2018-03-19T21:41:56.276Z,-1.88
2018-03-19T21:44:24.039Z,-1.89
2018-03-19T21:46:51.725Z,-1.91
2018-03-19T21:49:19.476Z,-1.93
2018-03-19T21:51:47.337Z,-1.95
2018-03-19T21:54:15.110Z,-1.97
2018-03-19T21:56:42.867Z,-1.99
2018-03-19T21:59:10.579Z,-2.00
2018-03-19T22:01:38.265Z,-2.01
2018-03-19T22:04:05.963Z,-2.02
2018-03-19T22:06:33.644Z,-2.03
2018-03-19T22:09:01.348Z,-2.03
2018-03-19T22:11:29.036Z,-2.05
2018-03-19T22:13:56.739Z,-2.05
2018-03-19T22:16:24.479Z,-2.06
2018-03-19T22:18:52.190Z,-2.07
2018-03-19T22:21:19.911Z,-2.08
2018-03-19T22:23:47.610Z,-2.08
2018-03-19T22:26:15.325Z,-2.09
2018-03-19T22:28:43.021Z,-2.08
2018-03-19T22:31:10.728Z,-2.09
2018-03-19T22:33:38.413Z,-2.10
2018-03-19T22:36:06.201Z,-2.11
2018-03-19T22:38:33.883Z,-2.12
2018-03-19T22:41:01.588Z,-2.12
2018-03-19T22:43:29.284Z,-2.12
2018-03-19T22:45:57.049Z,-2.10
2018-03-19T22:48:24.727Z,-2.10
2018-03-19T22:50:52.437Z,-2.09
2018-03-19T22:53:20.125Z,-2.09
2018-03-19T22:55:47.912Z,-2.09
2018-03-19T22:58:15.667Z,-2.08
2018-03-19T23:00:43.391Z,-2.08
2018-03-19T23:03:11.071Z,-2.08
2018-03-19T23:05:38.771Z,-2.07
2018-03-19T23:08:06.532Z,-2.06
2018-03-19T23:10:34.240Z,-2.07
2018-03-19T23:13:01.926Z,-2.07
2018-03-19T23:15:29.727Z,-2.07
2018-03-19T23:17:57.421Z,-2.08
2018-03-19T23:20:25.132Z,-2.09
2018-03-19T23:22:52.829Z,-2.10
2018-03-19T23:25:20.532Z,-2.10
2018-03-19T23:27:48.217Z,-2.10
2018-03-19T23:30:15.931Z,-2.11
2018-03-19T23:32:43.641Z,-2.11
2018-03-19T23:35:11.322Z,-2.12
2018-03-19T23:37:39.027Z,-2.11
2018-03-19T23:40:06.707Z,-2.11
2018-03-19T23:42:34.417Z,-2.11
2018-03-19T23:45:02.105Z,-2.09
2018-03-19T23:47:29.810Z,-2.09
2018-03-19T23:49:57.495Z,-2.07
2018-03-19T23:52:25.205Z,-2.06
2018-03-19T23:54:52.949Z,-2.06
2018-03-19T23:57:20.711Z,-2.06
2018-03-19T23:59:48.476Z,-2.07
